Time;durP1;ratioP1;P1;durP2;ratioP2;P2;SDS_P1;SDS_P2;PMS_P1;PMS_P2;Temp;Humidity;BMP_temperature;BMP_pressure;BME280_temperature;BME280_humidity;BME280_pressure;Samples;Min_cycle;Max_cycle;Signal;HPM_P1;HPM_P2
2021/09/12 00:00:09;;;;;;;10.55;7.35;;;15.50;55.40;;;;;;5077337;28;20500;-69
2021/09/12 00:02:37;;;;;;;11.55;7.22;;;15.40;55.10;;;;;;5082445;28;20093;-68
2021/09/12 00:05:07;;;;;;;8.40;7.43;;;15.40;55.60;;;;;;5081782;28;20492;-68
2021/09/12 00:07:36;;;;;;;13.57;7.13;;;15.40;56.00;;;;;;5080296;28;20077;-68
2021/09/12 00:10:05;;;;;;;8.07;7.28;;;15.40;56.10;;;;;;5072706;28;20051;-68
2021/09/12 00:12:34;;;;;;;10.85;7.60;;;15.40;56.20;;;;;;5056903;28;20129;-68
2021/09/12 00:15:04;;;;;;;9.32;6.97;;;15.40;56.00;;;;;;5077040;28;20079;-67
2021/09/12 00:17:32;;;;;;;11.57;7.40;;;15.30;56.00;;;;;;5077032;28;20081;-69
2021/09/12 00:20:03;;;;;;;11.48;7.90;;;15.30;55.90;;;;;;5079372;28;20047;-68
2021/09/12 00:22:31;;;;;;;13.43;7.97;;;15.30;56.00;;;;;;5079547;28;20040;-68
2021/09/12 00:25:01;;;;;;;9.13;7.47;;;15.30;55.20;;;;;;5082232;28;20044;-69
2021/09/12 00:27:33;;;;;;;12.35;7.60;;;15.30;55.40;;;;;;5084821;28;20048;-69
2021/09/12 00:30:03;;;;;;;10.52;7.65;;;15.20;55.70;;;;;;5063388;28;20091;-68
2021/09/12 00:32:31;;;;;;;15.15;8.00;;;15.10;56.60;;;;;;5067941;28;20049;-69
2021/09/12 00:35:00;;;;;;;11.85;7.97;;;15.20;56.60;;;;;;5083579;28;20087;-69
2021/09/12 00:37:28;;;;;;;11.93;7.78;;;15.20;55.90;;;;;;5078087;28;20040;-68
2021/09/12 00:39:57;;;;;;;12.30;7.57;;;15.10;54.90;;;;;;5078628;28;20495;-68
2021/09/12 00:42:25;;;;;;;8.75;7.45;;;15.10;56.00;;;;;;5085815;28;20108;-68
2021/09/12 00:44:57;;;;;;;10.57;7.00;;;15.10;56.10;;;;;;5050253;28;20050;-68
2021/09/12 00:47:34;;;;;;;10.95;7.72;;;15.20;55.40;;;;;;5067606;28;20051;-69
2021/09/12 00:50:05;;;;;;;11.07;7.47;;;15.10;54.80;;;;;;5079161;28;20043;-69
2021/09/12 00:52:34;;;;;;;12.02;7.55;;;15.00;55.20;;;;;;5061777;28;20476;-68
2021/09/12 00:55:04;;;;;;;9.85;7.18;;;15.00;56.20;;;;;;5056267;28;20098;-67
2021/09/12 00:57:35;;;;;;;9.48;7.50;;;14.90;56.10;;;;;;5058662;28;20523;-68
2021/09/12 01:00:05;;;;;;;12.48;7.90;;;14.90;55.80;;;;;;5058653;28;20048;-69
2021/09/12 01:02:35;;;;;;;9.32;7.50;;;14.90;56.10;;;;;;5062790;28;20083;-69
2021/09/12 01:05:16;;;;;;;10.50;7.75;;;15.00;55.70;;;;;;5056839;28;20321;-68
2021/09/12 01:07:46;;;;;;;8.60;7.63;;;15.00;54.70;;;;;;5060214;28;21133;-67
2021/09/12 01:10:15;;;;;;;12.98;7.82;;;14.90;54.10;;;;;;5060733;28;20044;-68
2021/09/12 01:12:43;;;;;;;10.10;7.55;;;14.90;53.90;;;;;;5076234;28;20149;-68
2021/09/12 01:15:11;;;;;;;8.65;7.00;;;14.90;54.30;;;;;;5081788;28;20546;-67
2021/09/12 01:17:41;;;;;;;8.88;7.68;;;14.90;53.90;;;;;;5081419;28;20869;-68
2021/09/12 01:20:10;;;;;;;11.95;7.57;;;14.90;54.10;;;;;;5075693;28;20052;-68
2021/09/12 01:22:38;;;;;;;8.65;7.75;;;14.80;54.80;;;;;;5080576;28;20044;-68
2021/09/12 01:25:09;;;;;;;9.13;7.60;;;14.80;54.60;;;;;;5083233;28;20044;-68
2021/09/12 01:27:37;;;;;;;9.77;7.65;;;14.80;55.70;;;;;;5079375;28;20319;-68
2021/09/12 01:30:06;;;;;;;9.07;7.90;;;14.80;55.40;;;;;;5079029;28;20069;-68
2021/09/12 01:32:35;;;;;;;9.27;7.50;;;14.80;55.20;;;;;;5084385;28;20157;-68
2021/09/12 01:35:03;;;;;;;10.02;6.85;;;14.80;55.20;;;;;;5083296;28;20040;-68
2021/09/12 01:37:32;;;;;;;10.02;7.93;;;14.70;55.20;;;;;;5081903;28;20044;-68
2021/09/12 01:40:00;;;;;;;13.45;7.43;;;14.80;56.20;;;;;;5076022;28;20101;-68
2021/09/12 01:42:29;;;;;;;13.05;8.23;;;14.70;55.90;;;;;;5081553;28;20040;-68
2021/09/12 01:44:57;;;;;;;13.50;8.13;;;14.70;55.80;;;;;;5077222;28;20076;-67
2021/09/12 01:47:25;;;;;;;9.10;7.78;;;14.70;56.20;;;;;;5062708;28;20048;-68
2021/09/12 01:49:56;;;;;;;11.32;7.85;;;14.70;56.10;;;;;;5075200;28;20043;-68
2021/09/12 01:52:27;;;;;;;8.80;7.45;;;14.70;56.20;;;;;;5081595;28;20171;-68
2021/09/12 01:54:55;;;;;;;13.88;7.10;;;14.70;55.70;;;;;;5078122;28;20131;-68
2021/09/12 01:57:30;;;;;;;8.90;7.22;;;14.70;55.70;;;;;;5073492;28;20048;-68
2021/09/12 01:59:59;;;;;;;;;;;14.60;55.40;;;;;;5055398;28;20132;-69
2021/09/12 02:02:28;;;;;;;8.98;7.25;;;14.60;56.40;;;;;;5043853;28;19936;-69
2021/09/12 02:04:56;;;;;;;10.05;7.45;;;14.60;56.70;;;;;;5063066;28;20047;-69
2021/09/12 02:07:25;;;;;;;13.05;7.25;;;14.60;56.20;;;;;;5068306;28;20056;-70
2021/09/12 02:09:58;;;;;;;9.70;7.50;;;14.60;56.20;;;;;;5049677;28;20519;-68
2021/09/12 02:12:29;;;;;;;12.88;7.75;;;14.60;56.20;;;;;;5056065;28;20131;-68
2021/09/12 02:15:05;;;;;;;12.73;7.30;;;14.60;56.20;;;;;;5056617;28;20060;-68
2021/09/12 02:17:33;;;;;;;9.07;6.97;;;14.60;56.10;;;;;;5077113;28;20423;-68
2021/09/12 02:20:02;;;;;;;10.15;7.43;;;14.60;56.20;;;;;;5056565;28;20173;-68
2021/09/12 02:22:30;;;;;;;9.82;7.63;;;14.50;56.30;;;;;;5077108;28;20430;-68
2021/09/12 02:24:58;;;;;;;8.70;7.55;;;14.50;56.30;;;;;;5072540;28;20041;-69
2021/09/12 02:27:26;;;;;;;10.80;6.93;;;14.40;56.50;;;;;;5059988;28;20060;-68
2021/09/12 02:29:54;;;;;;;8.13;6.97;;;14.30;56.80;;;;;;5057613;28;20048;-69
2021/09/12 02:32:25;;;;;;;11.10;7.78;;;14.30;57.00;;;;;;5086689;28;20036;-68
2021/09/12 02:34:53;;;;;;;8.75;7.20;;;14.30;57.30;;;;;;5051580;28;20099;-69
2021/09/12 02:37:21;;;;;;;10.40;7.20;;;14.40;57.40;;;;;;5074458;28;20595;-68
2021/09/12 02:39:49;;;;;;;11.23;7.45;;;14.40;57.50;;;;;;5063226;28;20098;-69
2021/09/12 02:42:17;;;;;;;13.02;7.70;;;14.40;56.60;;;;;;5064371;28;20126;-68
2021/09/12 02:44:45;;;;;;;12.05;8.23;;;14.40;56.20;;;;;;5069351;28;20098;-69
2021/09/12 02:47:14;;;;;;;9.52;7.63;;;14.40;55.20;;;;;;5062242;28;20110;-69
2021/09/12 02:49:44;;;;;;;9.65;6.68;;;14.40;55.00;;;;;;5074784;28;20567;-68
2021/09/12 02:52:12;;;;;;;10.80;6.75;;;14.40;54.80;;;;;;5084844;28;20120;-68
2021/09/12 02:54:40;;;;;;;10.10;7.50;;;14.40;54.40;;;;;;5068213;28;20087;-68
2021/09/12 02:57:08;;;;;;;8.20;7.22;;;14.30;54.60;;;;;;5062566;28;20044;-68
2021/09/12 02:59:36;;;;;;;9.32;7.63;;;14.30;55.30;;;;;;5075480;28;20052;-68
2021/09/12 03:02:04;;;;;;;10.20;7.65;;;14.30;55.50;;;;;;5075190;28;20095;-67
2021/09/12 03:04:33;;;;;;;9.88;7.50;;;14.20;55.40;;;;;;5078406;28;20052;-67
2021/09/12 03:07:02;;;;;;;8.98;7.53;;;14.20;55.80;;;;;;5078336;28;20117;-69
2021/09/12 03:09:30;;;;;;;11.77;8.05;;;14.20;55.60;;;;;;5067552;28;20052;-66
2021/09/12 03:11:58;;;;;;;10.35;8.10;;;14.20;55.70;;;;;;5080007;28;20048;-66
2021/09/12 03:14:26;;;;;;;11.45;7.85;;;14.20;55.80;;;;;;5082847;28;20040;-68
2021/09/12 03:16:54;;;;;;;10.60;8.05;;;14.20;56.10;;;;;;5082721;28;20129;-66
2021/09/12 03:19:22;;;;;;;9.98;8.65;;;14.10;56.80;;;;;;5073451;28;20040;-69
2021/09/12 03:21:58;;;;;;;12.07;8.18;;;14.10;57.00;;;;;;5082881;28;20065;-69
2021/09/12 03:24:27;;;;;;;11.93;9.45;;;14.10;57.20;;;;;;5073254;28;20267;-69
2021/09/12 03:26:55;;;;;;;10.45;8.70;;;14.20;57.80;;;;;;5081252;28;20124;-69
2021/09/12 03:29:23;;;;;;;10.93;8.60;;;14.20;58.10;;;;;;5073349;28;20059;-69
2021/09/12 03:31:51;;;;;;;12.25;9.40;;;14.20;58.40;;;;;;5045287;28;20090;-69
2021/09/12 03:34:19;;;;;;;11.45;8.75;;;14.20;59.10;;;;;;5082845;28;20097;-68
2021/09/12 03:36:47;;;;;;;12.25;9.75;;;14.10;59.60;;;;;;5076437;28;20044;-68
2021/09/12 03:39:15;;;;;;;13.25;9.73;;;14.20;60.20;;;;;;5069698;28;20052;-68
2021/09/12 03:41:44;;;;;;;12.70;9.82;;;14.10;60.70;;;;;;5069105;28;20080;-69
2021/09/12 03:44:13;;;;;;;13.20;10.30;;;14.10;61.20;;;;;;5067814;28;20292;-68
2021/09/12 03:46:41;;;;;;;12.60;10.43;;;14.00;61.10;;;;;;5084287;28;20074;-68
2021/09/12 03:49:09;;;;;;;11.27;9.70;;;14.00;61.50;;;;;;5076488;28;20052;-69
2021/09/12 03:51:37;;;;;;;15.10;10.18;;;14.00;62.00;;;;;;5077674;28;20040;-67
2021/09/12 03:54:06;;;;;;;15.30;10.68;;;14.00;62.40;;;;;;5079476;28;20040;-68
2021/09/12 03:56:33;;;;;;;15.00;9.98;;;14.10;62.50;;;;;;5067122;28;20461;-69
2021/09/12 03:59:03;;;;;;;14.38;10.48;;;14.10;62.40;;;;;;5075431;28;20495;-69
2021/09/12 04:01:31;;;;;;;15.18;10.65;;;14.10;62.40;;;;;;5083444;28;20055;-68
2021/09/12 04:03:59;;;;;;;15.75;10.48;;;14.00;62.10;;;;;;5086520;28;20043;-69
2021/09/12 04:06:27;;;;;;;13.65;11.20;;;14.00;62.20;;;;;;5079864;28;20048;-68
2021/09/12 04:08:55;;;;;;;14.25;10.38;;;14.10;62.20;;;;;;5074498;28;20052;-68
2021/09/12 04:11:23;;;;;;;13.40;10.98;;;14.10;62.20;;;;;;5084907;28;20056;-69
2021/09/12 04:13:51;;;;;;;15.65;10.52;;;14.10;62.00;;;;;;5079042;28;20055;-69
2021/09/12 04:16:21;;;;;;;16.45;10.95;;;14.10;61.80;;;;;;5083800;28;20071;-69
2021/09/12 04:18:49;;;;;;;14.40;10.75;;;14.10;61.40;;;;;;5076068;28;20062;-68
2021/09/12 04:21:17;;;;;;;15.60;11.55;;;14.00;61.10;;;;;;5084046;28;20044;-69
2021/09/12 04:23:45;;;;;;;17.83;11.10;;;14.00;61.10;;;;;;5084264;28;20480;-68
2021/09/12 04:26:13;;;;;;;14.05;10.95;;;14.00;61.10;;;;;;5083789;28;20071;-68
2021/09/12 04:28:41;;;;;;;13.70;10.73;;;14.00;61.10;;;;;;5077427;28;20045;-68
2021/09/12 04:31:09;;;;;;;14.32;10.52;;;14.00;61.20;;;;;;5083310;28;20044;-68
2021/09/12 04:33:39;;;;;;;14.60;10.25;;;14.00;61.20;;;;;;5083000;28;20036;-68
2021/09/12 04:36:07;;;;;;;15.38;10.70;;;14.00;61.10;;;;;;5082683;28;20045;-69
2021/09/12 04:38:35;;;;;;;12.90;9.73;;;13.90;61.00;;;;;;5077226;28;20044;-69
2021/09/12 04:41:03;;;;;;;12.23;10.45;;;13.80;61.00;;;;;;5079881;28;20573;-66
2021/09/12 04:43:31;;;;;;;12.63;8.90;;;13.80;61.20;;;;;;5081755;28;20491;-69
2021/09/12 04:45:59;;;;;;;13.55;9.75;;;13.80;61.20;;;;;;5077345;28;20384;-66
2021/09/12 04:48:27;;;;;;;13.40;9.63;;;13.80;61.00;;;;;;5077057;28;20067;-66
2021/09/12 04:50:57;;;;;;;11.20;9.48;;;13.80;61.00;;;;;;5076628;28;20043;-66
2021/09/12 04:53:25;;;;;;;14.57;10.00;;;13.80;61.10;;;;;;5084149;28;20093;-68
2021/09/12 04:55:53;;;;;;;12.07;9.73;;;13.80;61.00;;;;;;5080198;28;20048;-68
2021/09/12 04:58:21;;;;;;;12.05;9.93;;;13.80;61.00;;;;;;5075602;28;20064;-66
2021/09/12 05:00:49;;;;;;;12.18;9.23;;;13.80;60.90;;;;;;5061218;28;20478;-68
2021/09/12 05:03:17;;;;;;;10.20;8.60;;;13.70;60.80;;;;;;5083414;28;20121;-68
2021/09/12 05:05:45;;;;;;;16.38;9.80;;;13.70;60.80;;;;;;5080465;28;20106;-68
2021/09/12 05:08:15;;;;;;;10.75;9.00;;;13.70;60.90;;;;;;5079930;28;20048;-68
2021/09/12 05:10:43;;;;;;;11.75;8.57;;;13.70;60.80;;;;;;5080078;28;20849;-68
2021/09/12 05:13:11;;;;;;;13.02;8.77;;;13.70;60.80;;;;;;5081891;28;20068;-68
2021/09/12 05:15:42;;;;;;;10.77;8.85;;;13.80;60.80;;;;;;5082655;28;20101;-68
2021/09/12 05:18:11;;;;;;;10.73;8.73;;;14.20;56.80;;;;;;5059657;28;20548;-68
2021/09/12 05:20:40;;;;;;;12.57;9.57;;;14.20;57.10;;;;;;5060985;28;20055;-68
2021/09/12 05:23:08;;;;;;;9.98;8.13;;;14.70;51.60;;;;;;5081791;28;20516;-68
2021/09/12 05:25:37;;;;;;;10.43;8.25;;;15.20;45.90;;;;;;5081421;28;20578;-69
2021/09/12 05:28:05;;;;;;;10.38;8.23;;;15.20;41.30;;;;;;5075791;28;20048;-68
2021/09/12 05:30:33;;;;;;;12.23;8.25;;;15.00;45.60;;;;;;5071213;28;20048;-68
2021/09/12 05:33:01;;;;;;;10.55;7.65;;;14.50;49.30;;;;;;5078910;28;20123;-68
2021/09/12 05:35:30;;;;;;;8.18;6.85;;;14.30;52.70;;;;;;5084435;28;20052;-68
2021/09/12 05:37:58;;;;;;;10.40;7.40;;;14.20;54.40;;;;;;5081408;28;20118;-68
2021/09/12 05:40:27;;;;;;;8.40;7.35;;;14.30;54.10;;;;;;5076413;28;20056;-68
2021/09/12 05:42:56;;;;;;;12.68;7.85;;;14.30;54.20;;;;;;5064070;28;20105;-68
2021/09/12 05:45:24;;;;;;;9.18;6.97;;;14.40;54.00;;;;;;5080927;28;20068;-68
2021/09/12 05:47:53;;;;;;;7.97;7.18;;;14.40;53.40;;;;;;5077705;28;20380;-68
2021/09/12 05:50:21;;;;;;;10.07;7.22;;;14.50;53.40;;;;;;5073499;28;20048;-68
2021/09/12 05:52:49;;;;;;;8.77;7.22;;;14.40;53.30;;;;;;5082597;28;20044;-68
2021/09/12 05:55:17;;;;;;;11.30;7.05;;;14.40;51.20;;;;;;5080172;28;20044;-68
2021/09/12 05:57:45;;;;;;;10.15;7.93;;;14.40;51.90;;;;;;5081647;28;20048;-68
2021/09/12 06:00:16;;;;;;;12.35;7.53;;;14.50;52.50;;;;;;5075014;28;20055;-67
2021/09/12 06:02:44;;;;;;;8.25;7.00;;;14.60;52.00;;;;;;5080973;28;20078;-69
2021/09/12 06:05:12;;;;;;;10.18;7.53;;;14.50;52.00;;;;;;5082118;28;20079;-67
2021/09/12 06:07:40;;;;;;;11.05;7.68;;;14.50;53.30;;;;;;5075264;28;20056;-67
2021/09/12 06:10:09;;;;;;;9.43;8.13;;;14.40;52.00;;;;;;5076189;28;20040;-67
2021/09/12 06:12:37;;;;;;;9.00;7.72;;;14.50;53.40;;;;;;5083400;28;20079;-67
2021/09/12 06:15:07;;;;;;;11.35;9.18;;;14.70;52.90;;;;;;5080599;28;20044;-68
2021/09/12 06:17:36;;;;;;;9.63;8.02;;;14.60;51.20;;;;;;5077987;28;20101;-68
2021/09/12 06:20:05;;;;;;;11.23;8.50;;;14.70;49.60;;;;;;5073490;28;20135;-68
2021/09/12 06:22:33;;;;;;;10.57;9.07;;;14.50;51.60;;;;;;5082366;28;20055;-68
2021/09/12 06:25:01;;;;;;;10.60;9.02;;;14.50;52.90;;;;;;5078372;28;20097;-68
2021/09/12 06:27:29;;;;;;;12.85;9.07;;;14.40;53.40;;;;;;5076518;28;20044;-68
2021/09/12 06:29:57;;;;;;;12.65;9.60;;;14.60;53.70;;;;;;5072781;28;20080;-68
2021/09/12 06:32:25;;;;;;;11.90;9.82;;;14.50;53.40;;;;;;5081818;28;20126;-67
2021/09/12 06:34:55;;;;;;;12.00;9.40;;;14.60;53.60;;;;;;5063473;28;20416;-68
2021/09/12 06:37:23;;;;;;;12.40;9.90;;;14.80;53.70;;;;;;5079712;28;20097;-68
2021/09/12 06:39:50;;;;;;;12.65;10.07;;;14.70;52.70;;;;;;5074000;28;20102;-67
2021/09/12 06:42:18;;;;;;;12.95;9.40;;;14.80;52.10;;;;;;5080824;28;20457;-67
2021/09/12 06:44:47;;;;;;;11.70;9.38;;;14.70;52.00;;;;;;5081152;28;20044;-67
2021/09/12 06:47:15;;;;;;;12.02;9.23;;;14.80;52.50;;;;;;5077328;28;20055;-68
2021/09/12 06:49:44;;;;;;;11.30;9.65;;;15.00;50.90;;;;;;5070465;28;20045;-68
2021/09/12 06:52:13;;;;;;;10.55;8.40;;;15.00;49.80;;;;;;5081683;28;20055;-68
2021/09/12 06:54:41;;;;;;;11.55;8.88;;;15.00;49.50;;;;;;5079189;28;20052;-68
2021/09/12 06:57:09;;;;;;;10.75;8.85;;;15.20;49.70;;;;;;5076596;28;20064;-68
2021/09/12 06:59:37;;;;;;;12.48;9.25;;;15.10;48.40;;;;;;5072339;28;20052;-68
2021/09/12 07:02:05;;;;;;;11.50;8.75;;;14.90;48.30;;;;;;5084011;28;20048;-67
2021/09/12 07:04:34;;;;;;;11.80;9.38;;;15.00;49.80;;;;;;5079165;28;20040;-66
2021/09/12 07:07:02;;;;;;;13.80;9.98;;;14.90;50.00;;;;;;5063778;28;20050;-67
2021/09/12 07:09:31;;;;;;;11.00;8.98;;;15.10;51.70;;;;;;5074523;28;20113;-67
2021/09/12 07:12:00;;;;;;;13.73;10.43;;;15.20;50.10;;;;;;5078692;28;20040;-67
2021/09/12 07:14:42;;;;;;;13.07;10.38;;;15.30;51.50;;;;;;5080290;28;20127;-67
2021/09/12 07:17:10;;;;;;;13.65;10.65;;;15.20;50.10;;;;;;5083355;28;20056;-67
2021/09/12 07:19:38;;;;;;;25.40;16.45;;;15.50;50.30;;;;;;5074327;28;20048;-67
2021/09/12 07:22:07;;;;;;;15.27;11.23;;;15.70;49.60;;;;;;5068196;28;20507;-67
2021/09/12 07:24:38;;;;;;;16.65;11.45;;;15.60;47.10;;;;;;5081949;28;20473;-67
2021/09/12 07:27:06;;;;;;;15.35;11.55;;;16.00;44.90;;;;;;5079440;28;20420;-67
2021/09/12 07:29:35;;;;;;;13.23;11.35;;;15.90;45.70;;;;;;5075777;28;20044;-67
2021/09/12 07:32:03;;;;;;;15.27;11.55;;;15.90;43.50;;;;;;5081491;28;20094;-67
2021/09/12 07:34:31;;;;;;;14.05;11.32;;;15.90;43.70;;;;;;5083470;28;20033;-67
2021/09/12 07:36:59;;;;;;;14.95;10.73;;;16.10;42.50;;;;;;5080712;28;20542;-67
2021/09/12 07:39:27;;;;;;;15.02;10.27;;;16.20;42.50;;;;;;5079498;28;20055;-67
2021/09/12 07:41:56;;;;;;;14.80;11.30;;;16.20;40.70;;;;;;5081684;28;20040;-67
2021/09/12 07:44:25;;;;;;;11.30;9.70;;;16.30;40.30;;;;;;5083899;28;20074;-66
2021/09/12 07:46:53;;;;;;;12.68;9.93;;;16.50;37.90;;;;;;5079627;28;20052;-66
2021/09/12 07:49:21;;;;;;;11.95;9.52;;;16.70;34.70;;;;;;5057555;28;20469;-66
2021/09/12 07:51:49;;;;;;;13.05;9.43;;;16.80;34.50;;;;;;5065872;28;20495;-67
2021/09/12 07:54:17;;;;;;;10.05;8.95;;;16.90;34.30;;;;;;5087299;28;20094;-67
2021/09/12 07:56:45;;;;;;;11.43;8.80;;;17.20;32.00;;;;;;5083434;28;20048;-68
2021/09/12 07:59:14;;;;;;;10.73;9.15;;;17.30;29.10;;;;;;5076921;28;20071;-67
2021/09/12 08:01:42;;;;;;;11.38;9.00;;;17.10;27.80;;;;;;5085375;28;20097;-67
2021/09/12 08:04:11;;;;;;;12.88;9.13;;;17.30;29.40;;;;;;5084486;28;20060;-67
2021/09/12 08:06:39;;;;;;;10.18;8.80;;;17.30;28.00;;;;;;5088426;28;20395;-68
2021/09/12 08:09:07;;;;;;;10.23;8.32;;;17.60;27.30;;;;;;5080221;28;20079;-68
2021/09/12 08:11:35;;;;;;;9.63;8.35;;;17.70;25.30;;;;;;5065872;28;20495;-68
2021/09/12 08:14:03;;;;;;;9.90;8.90;;;17.60;23.80;;;;;;5083170;28;20040;-68
2021/09/12 08:16:32;;;;;;;10.45;8.35;;;17.50;25.60;;;;;;5079633;28;20135;-67
2021/09/12 08:19:01;;;;;;;9.43;8.02;;;17.50;25.40;;;;;;5076265;28;20052;-67
2021/09/12 08:21:29;;;;;;;9.75;8.75;;;17.80;24.00;;;;;;5082607;28;20151;-67
2021/09/12 08:23:58;;;;;;;10.20;8.48;;;18.00;23.80;;;;;;5083332;28;20055;-68
2021/09/12 08:26:30;;;;;;;8.95;7.90;;;18.20;21.30;;;;;;5078109;28;20048;-68
2021/09/12 08:28:58;;;;;;;10.05;7.70;;;18.30;19.60;;;;;;5073602;28;20052;-67
2021/09/12 08:31:27;;;;;;;10.20;8.32;;;18.20;18.70;;;;;;5065482;28;20093;-67
2021/09/12 08:33:56;;;;;;;8.63;7.68;;;18.00;20.50;;;;;;5085127;28;20056;-68
2021/09/12 08:36:24;;;;;;;8.45;7.65;;;18.20;20.70;;;;;;5085750;28;20060;-68
2021/09/12 08:38:57;;;;;;;11.52;7.55;;;18.20;19.60;;;;;;5059951;28;20052;-69
2021/09/12 08:41:26;;;;;;;8.45;7.47;;;18.50;18.40;;;;;;5079450;28;20563;-69
2021/09/12 08:43:54;;;;;;;10.00;7.70;;;18.80;17.50;;;;;;5082750;28;20109;-68
2021/09/12 08:46:22;;;;;;;8.48;6.90;;;18.70;16.40;;;;;;5087867;28;20049;-68
2021/09/12 08:48:50;;;;;;;8.63;7.50;;;19.00;15.80;;;;;;5074119;28;20076;-67
2021/09/12 08:51:19;;;;;;;7.97;6.38;;;18.90;15.20;;;;;;5078294;28;20128;-68
2021/09/12 08:53:47;;;;;;;7.25;6.47;;;19.00;14.40;;;;;;5085780;28;20422;-68
2021/09/12 08:56:15;;;;;;;7.38;6.30;;;18.80;12.90;;;;;;5081561;28;20334;-66
2021/09/12 08:58:44;;;;;;;7.90;5.82;;;19.30;13.40;;;;;;5079107;28;20044;-68
2021/09/12 09:01:12;;;;;;;7.38;5.65;;;19.50;10.60;;;;;;5065208;28;20075;-69
2021/09/12 09:03:42;;;;;;;6.65;5.30;;;19.30;9.70;;;;;;5082423;28;20101;-68
2021/09/12 09:06:15;;;;;;;6.45;5.18;;;19.20;9.50;;;;;;5084939;28;20101;-68
2021/09/12 09:08:55;;;;;;;6.00;4.90;;;19.00;9.90;;;;;;5073824;28;20056;-67
2021/09/12 09:11:31;;;;;;;6.80;5.78;;;19.40;8.30;;;;;;5080233;28;20054;-68
2021/09/12 09:14:14;;;;;;;6.28;4.97;;;19.60;9.20;;;;;;5083183;28;20110;-69
2021/09/12 09:16:44;;;;;;;5.55;4.50;;;19.80;7.70;;;;;;5081894;28;20039;-67
2021/09/12 09:19:13;;;;;;;5.70;4.55;;;19.90;6.00;;;;;;5075466;28;20106;-68
2021/09/12 09:21:43;;;;;;;4.43;4.00;;;19.90;6.00;;;;;;5061667;28;20044;-68
2021/09/12 09:24:17;;;;;;;4.82;3.38;;;20.00;4.90;;;;;;5079008;28;20098;-67
2021/09/12 09:26:46;;;;;;;4.55;3.28;;;20.30;3.50;;;;;;5083688;28;20048;-68
2021/09/12 09:29:16;;;;;;;3.55;3.17;;;20.40;2.00;;;;;;5074172;28;20048;-68
2021/09/12 09:31:44;;;;;;;4.25;3.10;;;20.50;1.00;;;;;;5080762;28;20044;-68
2021/09/12 09:34:19;;;;;;;4.80;3.30;;;20.30;1.00;;;;;;5082679;28;20439;-67
2021/09/12 09:36:49;;;;;;;4.15;2.85;;;20.10;1.00;;;;;;5076850;28;20059;-68
2021/09/12 09:39:35;;;;;;;2.65;2.40;;;20.40;1.00;;;;;;5075148;28;20045;-68
2021/09/12 09:42:03;;;;;;;3.88;3.25;;;20.60;1.00;;;;;;5083076;28;20048;-68
2021/09/12 09:44:32;;;;;;;3.78;3.00;;;19.90;1.00;;;;;;5083619;28;20096;-68
2021/09/12 09:47:10;;;;;;;3.22;2.92;;;19.90;1.00;;;;;;5079898;28;20052;-68
2021/09/12 09:49:38;;;;;;;6.30;4.18;;;20.50;1.00;;;;;;5075833;28;20779;-68
2021/09/12 09:52:07;;;;;;;3.95;3.15;;;20.40;1.00;;;;;;5079173;28;20040;-67
2021/09/12 09:54:36;;;;;;;3.75;2.80;;;20.50;1.00;;;;;;5080909;28;20044;-67
2021/09/12 09:57:04;;;;;;;5.35;3.10;;;20.40;1.00;;;;;;5078392;28;20057;-67
2021/09/12 09:59:32;;;;;;;3.20;2.63;;;20.60;1.00;;;;;;5077548;28;20496;-66
2021/09/12 10:02:00;;;;;;;3.75;3.10;;;20.60;1.00;;;;;;5077188;28;20496;-66
2021/09/12 10:04:29;;;;;;;2.60;2.33;;;20.50;1.00;;;;;;5074466;28;20105;-67
2021/09/12 10:06:58;;;;;;;3.80;3.03;;;20.70;1.00;;;;;;5082876;28;20078;-68
2021/09/12 10:09:26;;;;;;;3.40;2.72;;;20.50;1.00;;;;;;5076885;28;20060;-67
2021/09/12 10:11:59;;;;;;;5.32;2.72;;;20.70;1.00;;;;;;5084946;28;20043;-68
2021/09/12 10:14:30;;;;;;;3.20;2.40;;;21.00;1.00;;;;;;5079748;28;20665;-67
2021/09/12 10:17:01;;;;;;;3.70;3.10;;;20.90;1.00;;;;;;5077614;28;20507;-68
2021/09/12 10:19:34;;;;;;;4.47;2.70;;;20.80;1.00;;;;;;5074311;28;20055;-68
2021/09/12 10:22:08;;;;;;;4.53;2.88;;;20.90;1.00;;;;;;5079565;28;20048;-68
2021/09/12 10:24:56;;;;;;;3.28;2.97;;;21.00;1.00;;;;;;5079817;28;20537;-67
2021/09/12 10:27:36;;;;;;;4.05;2.85;;;20.90;1.00;;;;;;5078419;28;20496;-68
2021/09/12 10:30:23;;;;;;;5.20;2.78;;;20.70;1.00;;;;;;5074397;28;20105;-67
2021/09/12 10:32:51;;;;;;;2.88;2.50;;;20.90;1.00;;;;;;5079858;28;20064;-67
2021/09/12 10:35:24;;;;;;;2.63;2.28;;;20.90;1.00;;;;;;5086769;28;20044;-67
2021/09/12 10:37:58;;;;;;;3.47;2.70;;;21.20;1.00;;;;;;5077539;28;20044;-69
2021/09/12 10:40:46;;;;;;;;;;;21.10;1.00;;;;;;5035578;28;20118;-67
2021/09/12 10:43:50;;;;;;;2.75;2.25;;;21.20;1.00;;;;;;5081452;28;20371;-67
2021/09/12 10:46:23;;;;;;;3.05;1.75;;;21.60;1.00;;;;;;5079326;28;20054;-68
2021/09/12 10:49:29;;;;;;;2.72;2.00;;;21.40;1.00;;;;;;5072363;28;20262;-68
2021/09/12 10:51:57;;;;;;;2.08;1.65;;;21.50;1.00;;;;;;5081724;28;20113;-66
2021/09/12 10:54:25;;;;;;;2.17;1.75;;;21.60;1.00;;;;;;5085917;28;20082;-68
2021/09/12 10:57:06;;;;;;;2.40;1.85;;;21.90;1.00;;;;;;5080938;28;20048;-67
2021/09/12 10:59:36;;;;;;;2.33;1.75;;;21.90;1.00;;;;;;5074675;28;20262;-67
2021/09/12 11:02:03;;;;;;;2.75;1.70;;;21.40;1.00;;;;;;5085034;28;20052;-67
2021/09/12 11:04:34;;;;;;;2.30;2.00;;;21.20;1.00;;;;;;5084356;28;20048;-68
2021/09/12 11:07:04;;;;;;;2.25;1.77;;;21.00;1.00;;;;;;5079461;28;20045;-67
2021/09/12 11:09:33;;;;;;;2.13;1.83;;;21.30;1.00;;;;;;5056810;28;20055;-68
2021/09/12 11:12:03;;;;;;;2.20;1.90;;;21.50;1.00;;;;;;5078553;28;20487;-68
2021/09/12 11:14:33;;;;;;;1.73;1.60;;;21.30;1.00;;;;;;5085125;28;20048;-68
2021/09/12 11:17:07;;;;;;;2.42;1.75;;;21.20;1.00;;;;;;5081492;28;20077;-68
2021/09/12 11:19:35;;;;;;;2.30;1.80;;;21.50;1.00;;;;;;5075405;28;20663;-68
2021/09/12 11:22:04;;;;;;;2.70;1.95;;;22.00;1.00;;;;;;5084023;28;20036;-68
2021/09/12 11:24:32;;;;;;;2.55;2.22;;;21.80;1.00;;;;;;5080897;28;20101;-68
2021/09/12 11:27:02;;;;;;;5.47;2.00;;;21.70;1.00;;;;;;5081505;28;20068;-67
2021/09/12 11:29:31;;;;;;;2.80;2.05;;;22.10;1.00;;;;;;5075528;28;20047;-67
2021/09/12 11:32:03;;;;;;;4.18;1.98;;;21.80;1.00;;;;;;5081036;28;20552;-67
2021/09/12 11:34:34;;;;;;;3.08;2.20;;;21.80;1.00;;;;;;5082980;28;20059;-67
2021/09/12 11:37:04;;;;;;;2.67;1.55;;;21.70;1.00;;;;;;5079738;28;20048;-67
2021/09/12 11:39:33;;;;;;;2.08;1.88;;;21.80;1.00;;;;;;5075239;28;20036;-67
2021/09/12 11:42:03;;;;;;;2.22;1.85;;;21.60;1.00;;;;;;5082742;28;20063;-67
2021/09/12 11:44:33;;;;;;;2.40;2.20;;;21.90;1.00;;;;;;5083431;28;20531;-67
2021/09/12 11:47:03;;;;;;;2.92;2.63;;;22.20;1.00;;;;;;5083477;28;20043;-67
2021/09/12 11:49:33;;;;;;;2.50;2.00;;;22.20;1.00;;;;;;5078398;28;20114;-68
2021/09/12 11:52:01;;;;;;;2.85;2.10;;;22.00;1.00;;;;;;5063249;28;20067;-67
2021/09/12 11:54:31;;;;;;;2.72;2.08;;;22.20;1.00;;;;;;5082798;28;20052;-67
2021/09/12 11:57:03;;;;;;;4.13;2.28;;;22.00;1.00;;;;;;5081595;28;20050;-67
2021/09/12 11:59:33;;;;;;;5.90;2.40;;;22.20;1.00;;;;;;5076758;28;20040;-67
2021/09/12 12:02:03;;;;;;;3.15;2.08;;;22.50;1.00;;;;;;5082206;28;20056;-67
2021/09/12 12:04:34;;;;;;;2.40;1.90;;;22.50;1.00;;;;;;5087797;28;20076;-67
2021/09/12 12:07:02;;;;;;;4.07;2.22;;;22.00;1.00;;;;;;5082536;28;20048;-66
2021/09/12 12:09:41;;;;;;;2.90;2.00;;;22.00;1.00;;;;;;5073664;28;20048;-66
2021/09/12 12:12:13;;;;;;;3.13;2.00;;;22.40;1.00;;;;;;5070524;28;20101;-69
2021/09/12 12:14:46;;;;;;;4.15;2.28;;;22.20;1.00;;;;;;5064217;28;20048;-66
2021/09/12 12:17:16;;;;;;;2.20;2.00;;;22.30;1.00;;;;;;5082670;28;20146;-67
2021/09/12 12:19:48;;;;;;;5.03;2.28;;;22.60;1.00;;;;;;5070274;28;20286;-67
2021/09/12 12:22:17;;;;;;;2.40;2.10;;;22.60;1.00;;;;;;5067199;28;20137;-66
2021/09/12 12:24:57;;;;;;;2.17;1.75;;;22.20;1.00;;;;;;5063957;28;20070;-67
2021/09/12 12:27:25;;;;;;;3.08;2.10;;;22.50;1.00;;;;;;5081354;28;20036;-68
2021/09/12 12:29:58;;;;;;;2.00;1.67;;;21.90;1.00;;;;;;5075638;28;20048;-67
2021/09/12 12:32:28;;;;;;;;;;;22.10;1.00;;;;;;5081089;28;20036;-67
2021/09/12 12:34:59;;;;;;;1.85;1.60;;;22.30;1.00;;;;;;5083044;28;19959;-67
2021/09/12 12:37:43;;;;;;;2.42;2.00;;;21.70;1.00;;;;;;5082699;28;20064;-67
2021/09/12 12:40:14;;;;;;;3.95;2.45;;;21.80;1.00;;;;;;5074906;28;20186;-67
2021/09/12 12:42:43;;;;;;;3.47;2.13;;;21.70;1.00;;;;;;5082146;28;20056;-67
2021/09/12 12:45:23;;;;;;;2.83;1.80;;;22.00;1.00;;;;;;5080167;28;20066;-67
2021/09/12 12:47:55;;;;;;;2.00;1.75;;;22.60;1.00;;;;;;5080663;28;20040;-68
2021/09/12 12:50:33;;;;;;;2.42;1.52;;;22.80;1.00;;;;;;5076578;28;20048;-68
2021/09/12 12:53:17;;;;;;;2.38;1.58;;;22.80;1.00;;;;;;5084787;28;20079;-67
2021/09/12 12:55:46;;;;;;;2.40;1.50;;;23.10;1.00;;;;;;5082555;28;20041;-66